sensor_id;sensor_type;location;lat;lon;timestamp;temperature;humidity
53272;DHT22;39160;48.580;7.756;2022-12-07T00:00:42;5.50;99.90
53272;DHT22;39160;48.580;7.756;2022-12-07T00:05:32;5.40;99.90
53272;DHT22;39160;48.580;7.756;2022-12-07T00:10:23;5.40;99.90
53272;DHT22;39160;48.580;7.756;2022-12-07T00:15:14;5.40;99.90
53272;DHT22;39160;48.580;7.756;2022-12-07T00:20:06;5.50;99.90
53272;DHT22;39160;48.580;7.756;2022-12-07T00:24:57;5.40;99.90
53272;DHT22;39160;48.580;7.756;2022-12-07T00:29:47;5.50;99.90
53272;DHT22;39160;48.580;7.756;2022-12-07T00:34:38;5.40;99.90
53272;DHT22;39160;48.580;7.756;2022-12-07T00:39:28;5.40;99.90
53272;DHT22;39160;48.580;7.756;2022-12-07T00:44:19;5.50;99.90
53272;DHT22;39160;48.580;7.756;2022-12-07T00:49:10;5.50;99.90
53272;DHT22;39160;48.580;7.756;2022-12-07T00:54:00;5.60;99.90
53272;DHT22;39160;48.580;7.756;2022-12-07T00:59:01;5.60;99.90
53272;DHT22;39160;48.580;7.756;2022-12-07T01:03:53;5.60;99.90
53272;DHT22;39160;48.580;7.756;2022-12-07T01:08:44;5.50;99.90
53272;DHT22;39160;48.580;7.756;2022-12-07T01:13:35;5.60;99.90
53272;DHT22;39160;48.580;7.756;2022-12-07T01:18:27;5.60;99.90
53272;DHT22;39160;48.580;7.756;2022-12-07T01:23:18;5.50;99.90
53272;DHT22;39160;48.580;7.756;2022-12-07T01:28:09;5.60;99.90
53272;DHT22;39160;48.580;7.756;2022-12-07T01:32:59;5.60;99.90
53272;DHT22;39160;48.580;7.756;2022-12-07T01:37:50;5.70;99.90
53272;DHT22;39160;48.580;7.756;2022-12-07T01:42:41;5.70;99.90
53272;DHT22;39160;48.580;7.756;2022-12-07T01:47:31;5.70;99.90
53272;DHT22;39160;48.580;7.756;2022-12-07T01:52:28;5.60;99.90
53272;DHT22;39160;48.580;7.756;2022-12-07T01:57:21;5.60;99.90
53272;DHT22;39160;48.580;7.756;2022-12-07T02:02:22;5.70;99.90
53272;DHT22;39160;48.580;7.756;2022-12-07T02:07:15;5.70;99.90
53272;DHT22;39160;48.580;7.756;2022-12-07T02:12:06;5.70;99.90
53272;DHT22;39160;48.580;7.756;2022-12-07T02:17:14;5.70;99.90
53272;DHT22;39160;48.580;7.756;2022-12-07T02:38:14;5.60;99.90
53272;DHT22;39160;48.580;7.756;2022-12-07T02:48:20;5.40;99.90
53272;DHT22;39160;48.580;7.756;2022-12-07T02:53:33;5.50;99.90
53272;DHT22;39160;48.580;7.756;2022-12-07T02:58:37;5.50;99.90
53272;DHT22;39160;48.580;7.756;2022-12-07T03:03:31;5.60;99.90
53272;DHT22;39160;48.580;7.756;2022-12-07T03:18:33;5.70;99.90
53272;DHT22;39160;48.580;7.756;2022-12-07T03:23:27;5.70;99.90
53272;DHT22;39160;48.580;7.756;2022-12-07T03:28:22;5.80;99.90
53272;DHT22;39160;48.580;7.756;2022-12-07T03:33:20;5.80;99.90
53272;DHT22;39160;48.580;7.756;2022-12-07T03:38:19;5.90;99.90
53272;DHT22;39160;48.580;7.756;2022-12-07T03:43:11;5.90;99.90
53272;DHT22;39160;48.580;7.756;2022-12-07T03:48:55;5.90;99.90
53272;DHT22;39160;48.580;7.756;2022-12-07T03:53:39;5.90;99.90
53272;DHT22;39160;48.580;7.756;2022-12-07T03:58:32;5.90;99.90
53272;DHT22;39160;48.580;7.756;2022-12-07T04:03:23;5.80;99.90
53272;DHT22;39160;48.580;7.756;2022-12-07T04:08:13;5.70;99.90
53272;DHT22;39160;48.580;7.756;2022-12-07T04:13:04;5.70;99.90
53272;DHT22;39160;48.580;7.756;2022-12-07T04:17:54;5.70;99.90
53272;DHT22;39160;48.580;7.756;2022-12-07T04:22:45;5.80;99.90
53272;DHT22;39160;48.580;7.756;2022-12-07T04:27:36;5.80;99.90
53272;DHT22;39160;48.580;7.756;2022-12-07T04:32:26;5.70;99.90
53272;DHT22;39160;48.580;7.756;2022-12-07T04:37:17;5.70;99.90
53272;DHT22;39160;48.580;7.756;2022-12-07T04:42:08;5.80;99.90
53272;DHT22;39160;48.580;7.756;2022-12-07T04:46:58;5.70;99.90
53272;DHT22;39160;48.580;7.756;2022-12-07T04:51:49;5.70;99.90
53272;DHT22;39160;48.580;7.756;2022-12-07T04:56:40;5.50;99.90
53272;DHT22;39160;48.580;7.756;2022-12-07T05:01:31;5.50;99.90
53272;DHT22;39160;48.580;7.756;2022-12-07T05:06:22;5.50;99.90
53272;DHT22;39160;48.580;7.756;2022-12-07T05:11:13;5.50;99.90
53272;DHT22;39160;48.580;7.756;2022-12-07T05:16:22;5.40;99.90
53272;DHT22;39160;48.580;7.756;2022-12-07T05:21:13;5.30;99.90
53272;DHT22;39160;48.580;7.756;2022-12-07T05:26:03;5.40;99.90
53272;DHT22;39160;48.580;7.756;2022-12-07T05:30:54;5.40;99.90
53272;DHT22;39160;48.580;7.756;2022-12-07T05:35:44;5.40;99.90
53272;DHT22;39160;48.580;7.756;2022-12-07T05:40:36;5.40;99.90
53272;DHT22;39160;48.580;7.756;2022-12-07T05:45:27;5.20;99.90
53272;DHT22;39160;48.580;7.756;2022-12-07T05:50:17;5.30;99.90
53272;DHT22;39160;48.580;7.756;2022-12-07T05:55:08;5.30;99.90
53272;DHT22;39160;48.580;7.756;2022-12-07T05:59:59;5.20;99.90
53272;DHT22;39160;48.580;7.756;2022-12-07T06:04:49;5.30;99.90
53272;DHT22;39160;48.580;7.756;2022-12-07T06:09:40;5.30;99.90
53272;DHT22;39160;48.580;7.756;2022-12-07T06:14:31;5.30;99.90
53272;DHT22;39160;48.580;7.756;2022-12-07T06:19:21;5.40;99.90
53272;DHT22;39160;48.580;7.756;2022-12-07T06:24:13;5.30;99.90
53272;DHT22;39160;48.580;7.756;2022-12-07T06:29:04;5.20;99.90
53272;DHT22;39160;48.580;7.756;2022-12-07T06:34:02;5.30;99.90
53272;DHT22;39160;48.580;7.756;2022-12-07T06:38:53;5.30;99.90
53272;DHT22;39160;48.580;7.756;2022-12-07T06:43:44;5.40;99.90
53272;DHT22;39160;48.580;7.756;2022-12-07T06:48:35;5.30;99.90
53272;DHT22;39160;48.580;7.756;2022-12-07T06:53:25;5.40;99.90
53272;DHT22;39160;48.580;7.756;2022-12-07T06:58:17;5.40;99.90
53272;DHT22;39160;48.580;7.756;2022-12-07T07:03:07;5.50;99.90
53272;DHT22;39160;48.580;7.756;2022-12-07T07:07:58;5.50;99.90
53272;DHT22;39160;48.580;7.756;2022-12-07T07:12:49;5.50;99.90
53272;DHT22;39160;48.580;7.756;2022-12-07T07:17:39;5.60;99.90
53272;DHT22;39160;48.580;7.756;2022-12-07T07:22:30;5.50;99.90
53272;DHT22;39160;48.580;7.756;2022-12-07T07:27:20;5.60;99.90
53272;DHT22;39160;48.580;7.756;2022-12-07T07:32:11;5.70;99.90
53272;DHT22;39160;48.580;7.756;2022-12-07T07:37:02;5.70;99.90
53272;DHT22;39160;48.580;7.756;2022-12-07T07:41:53;5.70;99.90
53272;DHT22;39160;48.580;7.756;2022-12-07T07:46:44;5.70;99.90
53272;DHT22;39160;48.580;7.756;2022-12-07T07:51:34;5.70;99.90
53272;DHT22;39160;48.580;7.756;2022-12-07T07:56:25;5.80;99.90
53272;DHT22;39160;48.580;7.756;2022-12-07T08:01:16;5.70;99.90
53272;DHT22;39160;48.580;7.756;2022-12-07T08:06:06;5.70;99.90
53272;DHT22;39160;48.580;7.756;2022-12-07T08:10:57;5.70;99.90
53272;DHT22;39160;48.580;7.756;2022-12-07T08:15:51;5.70;99.90
53272;DHT22;39160;48.580;7.756;2022-12-07T08:20:42;5.70;99.90
53272;DHT22;39160;48.580;7.756;2022-12-07T08:25:33;5.80;99.90
53272;DHT22;39160;48.580;7.756;2022-12-07T08:30:24;5.90;99.90
53272;DHT22;39160;48.580;7.756;2022-12-07T08:35:15;5.90;99.90
53272;DHT22;39160;48.580;7.756;2022-12-07T08:40:07;6.00;99.90
53272;DHT22;39160;48.580;7.756;2022-12-07T08:44:58;5.90;99.90
53272;DHT22;39160;48.580;7.756;2022-12-07T08:49:49;5.80;99.90
53272;DHT22;39160;48.580;7.756;2022-12-07T08:54:41;5.70;99.90
53272;DHT22;39160;48.580;7.756;2022-12-07T08:59:33;5.70;99.90
53272;DHT22;39160;48.580;7.756;2022-12-07T09:04:24;5.80;99.90
53272;DHT22;39160;48.580;7.756;2022-12-07T09:09:15;6.00;99.90
53272;DHT22;39160;48.580;7.756;2022-12-07T09:14:06;6.00;99.90
53272;DHT22;39160;48.580;7.756;2022-12-07T09:18:57;5.90;99.90
53272;DHT22;39160;48.580;7.756;2022-12-07T09:23:48;6.00;99.90
53272;DHT22;39160;48.580;7.756;2022-12-07T09:28:38;6.10;99.90
53272;DHT22;39160;48.580;7.756;2022-12-07T09:33:29;6.20;99.90
53272;DHT22;39160;48.580;7.756;2022-12-07T09:38:20;6.30;99.90
53272;DHT22;39160;48.580;7.756;2022-12-07T09:43:18;6.30;99.90
53272;DHT22;39160;48.580;7.756;2022-12-07T09:48:22;6.30;99.90
53272;DHT22;39160;48.580;7.756;2022-12-07T09:53:19;6.40;99.90
53272;DHT22;39160;48.580;7.756;2022-12-07T09:58:22;6.60;99.90
53272;DHT22;39160;48.580;7.756;2022-12-07T10:03:13;6.70;99.90
53272;DHT22;39160;48.580;7.756;2022-12-07T10:08:04;6.50;99.90
53272;DHT22;39160;48.580;7.756;2022-12-07T10:13:01;6.60;99.90
53272;DHT22;39160;48.580;7.756;2022-12-07T10:17:52;6.60;99.90
53272;DHT22;39160;48.580;7.756;2022-12-07T10:28:12;6.60;99.90
53272;DHT22;39160;48.580;7.756;2022-12-07T10:33:03;6.70;99.90
53272;DHT22;39160;48.580;7.756;2022-12-07T10:38:16;6.70;99.90
53272;DHT22;39160;48.580;7.756;2022-12-07T10:48:22;6.90;99.90
53272;DHT22;39160;48.580;7.756;2022-12-07T10:53:28;6.90;99.90
53272;DHT22;39160;48.580;7.756;2022-12-07T11:23:55;7.50;99.90
53272;DHT22;39160;48.580;7.756;2022-12-07T11:33:53;7.90;99.90
53272;DHT22;39160;48.580;7.756;2022-12-07T11:38:58;8.00;99.90
53272;DHT22;39160;48.580;7.756;2022-12-07T11:43:59;8.00;99.90
53272;DHT22;39160;48.580;7.756;2022-12-07T11:53:54;8.00;99.90
53272;DHT22;39160;48.580;7.756;2022-12-07T11:58:55;7.90;99.90
53272;DHT22;39160;48.580;7.756;2022-12-07T12:03:50;7.70;99.90
53272;DHT22;39160;48.580;7.756;2022-12-07T12:08:53;7.60;99.90
53272;DHT22;39160;48.580;7.756;2022-12-07T12:14:13;7.70;99.90
53272;DHT22;39160;48.580;7.756;2022-12-07T12:19:32;7.70;99.90
53272;DHT22;39160;48.580;7.756;2022-12-07T12:24:26;7.50;99.90
53272;DHT22;39160;48.580;7.756;2022-12-07T12:29:32;7.60;99.90
53272;DHT22;39160;48.580;7.756;2022-12-07T12:34:40;7.40;99.90
53272;DHT22;39160;48.580;7.756;2022-12-07T12:39:31;7.30;99.90
53272;DHT22;39160;48.580;7.756;2022-12-07T12:54:19;6.90;99.90
53272;DHT22;39160;48.580;7.756;2022-12-07T12:59:38;7.00;99.90
53272;DHT22;39160;48.580;7.756;2022-12-07T13:04:39;6.90;99.90
53272;DHT22;39160;48.580;7.756;2022-12-07T13:09:33;6.90;99.90
53272;DHT22;39160;48.580;7.756;2022-12-07T13:14:51;6.80;99.90
53272;DHT22;39160;48.580;7.756;2022-12-07T13:24:32;6.60;99.90
53272;DHT22;39160;48.580;7.756;2022-12-07T13:29:23;6.60;99.90
53272;DHT22;39160;48.580;7.756;2022-12-07T13:34:40;6.70;99.90
53272;DHT22;39160;48.580;7.756;2022-12-07T13:39:34;6.60;99.90
53272;DHT22;39160;48.580;7.756;2022-12-07T13:44:27;6.60;99.90
53272;DHT22;39160;48.580;7.756;2022-12-07T13:49:22;6.60;99.90
53272;DHT22;39160;48.580;7.756;2022-12-07T13:54:14;6.70;99.90
53272;DHT22;39160;48.580;7.756;2022-12-07T13:59:15;6.70;99.90
53272;DHT22;39160;48.580;7.756;2022-12-07T14:09:23;6.60;99.90
53272;DHT22;39160;48.580;7.756;2022-12-07T14:14:22;6.60;99.90
53272;DHT22;39160;48.580;7.756;2022-12-07T14:19:52;6.50;99.90
53272;DHT22;39160;48.580;7.756;2022-12-07T14:24:45;6.40;99.90
53272;DHT22;39160;48.580;7.756;2022-12-07T14:29:37;6.50;99.90
53272;DHT22;39160;48.580;7.756;2022-12-07T14:34:28;6.40;99.90
53272;DHT22;39160;48.580;7.756;2022-12-07T14:39:20;6.50;99.90
53272;DHT22;39160;48.580;7.756;2022-12-07T14:44:13;6.50;99.90
53272;DHT22;39160;48.580;7.756;2022-12-07T14:49:04;6.50;99.90
53272;DHT22;39160;48.580;7.756;2022-12-07T14:53:55;6.40;99.90
53272;DHT22;39160;48.580;7.756;2022-12-07T14:58:46;6.30;99.90
53272;DHT22;39160;48.580;7.756;2022-12-07T15:03:38;6.30;99.90
53272;DHT22;39160;48.580;7.756;2022-12-07T15:08:29;6.20;99.90
53272;DHT22;39160;48.580;7.756;2022-12-07T15:13:19;6.40;99.90
53272;DHT22;39160;48.580;7.756;2022-12-07T15:18:29;6.30;99.90
53272;DHT22;39160;48.580;7.756;2022-12-07T15:23:20;6.30;99.90
53272;DHT22;39160;48.580;7.756;2022-12-07T15:28:12;6.20;99.90
53272;DHT22;39160;48.580;7.756;2022-12-07T15:33:02;6.10;99.90
53272;DHT22;39160;48.580;7.756;2022-12-07T15:37:53;6.20;99.90
53272;DHT22;39160;48.580;7.756;2022-12-07T15:42:44;6.10;99.90
53272;DHT22;39160;48.580;7.756;2022-12-07T15:47:40;6.10;99.90
53272;DHT22;39160;48.580;7.756;2022-12-07T15:52:31;6.00;99.90
53272;DHT22;39160;48.580;7.756;2022-12-07T15:57:22;6.00;99.90
53272;DHT22;39160;48.580;7.756;2022-12-07T16:02:15;6.00;99.90
53272;DHT22;39160;48.580;7.756;2022-12-07T16:07:06;5.90;99.90
53272;DHT22;39160;48.580;7.756;2022-12-07T16:11:57;6.00;99.90
53272;DHT22;39160;48.580;7.756;2022-12-07T16:16:48;6.10;99.90
53272;DHT22;39160;48.580;7.756;2022-12-07T16:21:39;6.10;99.90
53272;DHT22;39160;48.580;7.756;2022-12-07T16:26:30;6.00;99.90
53272;DHT22;39160;48.580;7.756;2022-12-07T16:31:23;6.00;99.90
53272;DHT22;39160;48.580;7.756;2022-12-07T16:36:15;5.90;99.90
53272;DHT22;39160;48.580;7.756;2022-12-07T16:41:07;5.90;99.90
53272;DHT22;39160;48.580;7.756;2022-12-07T16:45:57;5.90;99.90
53272;DHT22;39160;48.580;7.756;2022-12-07T16:50:48;5.90;99.90
53272;DHT22;39160;48.580;7.756;2022-12-07T16:55:41;5.90;99.90
53272;DHT22;39160;48.580;7.756;2022-12-07T17:00:32;6.00;99.90
53272;DHT22;39160;48.580;7.756;2022-12-07T17:05:22;6.10;99.90
53272;DHT22;39160;48.580;7.756;2022-12-07T17:10:14;6.20;99.90
53272;DHT22;39160;48.580;7.756;2022-12-07T17:15:05;5.90;99.90
53272;DHT22;39160;48.580;7.756;2022-12-07T17:20:12;5.80;99.90
53272;DHT22;39160;48.580;7.756;2022-12-07T17:25:07;5.90;99.90
53272;DHT22;39160;48.580;7.756;2022-12-07T17:29:57;6.00;99.90
53272;DHT22;39160;48.580;7.756;2022-12-07T17:34:49;5.90;99.90
53272;DHT22;39160;48.580;7.756;2022-12-07T17:39:42;5.90;99.90
53272;DHT22;39160;48.580;7.756;2022-12-07T17:44:33;6.00;99.90
53272;DHT22;39160;48.580;7.756;2022-12-07T17:49:25;6.50;99.90
53272;DHT22;39160;48.580;7.756;2022-12-07T17:54:16;6.30;99.90
53272;DHT22;39160;48.580;7.756;2022-12-07T17:59:08;6.10;99.90
53272;DHT22;39160;48.580;7.756;2022-12-07T18:03:58;5.90;99.90
53272;DHT22;39160;48.580;7.756;2022-12-07T18:08:49;5.80;99.90
53272;DHT22;39160;48.580;7.756;2022-12-07T18:13:40;5.90;99.90
53272;DHT22;39160;48.580;7.756;2022-12-07T18:18:31;5.90;99.90
53272;DHT22;39160;48.580;7.756;2022-12-07T18:23:21;5.90;99.90
53272;DHT22;39160;48.580;7.756;2022-12-07T18:28:12;5.90;99.90
53272;DHT22;39160;48.580;7.756;2022-12-07T18:33:02;5.90;99.90
53272;DHT22;39160;48.580;7.756;2022-12-07T18:37:53;5.90;99.90
53272;DHT22;39160;48.580;7.756;2022-12-07T18:42:44;5.80;99.90
53272;DHT22;39160;48.580;7.756;2022-12-07T18:47:35;5.90;99.90
53272;DHT22;39160;48.580;7.756;2022-12-07T18:52:25;5.80;99.90
53272;DHT22;39160;48.580;7.756;2022-12-07T18:57:16;6.20;99.90
53272;DHT22;39160;48.580;7.756;2022-12-07T19:02:08;6.70;99.90
53272;DHT22;39160;48.580;7.756;2022-12-07T19:06:59;6.30;99.90
53272;DHT22;39160;48.580;7.756;2022-12-07T19:11:50;6.00;99.90
53272;DHT22;39160;48.580;7.756;2022-12-07T19:16:41;5.90;99.90
53272;DHT22;39160;48.580;7.756;2022-12-07T19:21:32;5.80;99.90
53272;DHT22;39160;48.580;7.756;2022-12-07T19:26:23;5.60;99.90
53272;DHT22;39160;48.580;7.756;2022-12-07T19:31:13;5.40;99.90
53272;DHT22;39160;48.580;7.756;2022-12-07T19:36:05;5.50;99.90
53272;DHT22;39160;48.580;7.756;2022-12-07T19:41:07;5.40;99.90
53272;DHT22;39160;48.580;7.756;2022-12-07T19:46:17;5.40;99.90
53272;DHT22;39160;48.580;7.756;2022-12-07T19:51:08;5.40;99.90
53272;DHT22;39160;48.580;7.756;2022-12-07T19:55:59;5.30;99.90
53272;DHT22;39160;48.580;7.756;2022-12-07T20:00:50;5.40;99.90
53272;DHT22;39160;48.580;7.756;2022-12-07T20:05:40;5.80;99.90
53272;DHT22;39160;48.580;7.756;2022-12-07T20:10:31;5.70;99.90
53272;DHT22;39160;48.580;7.756;2022-12-07T20:15:23;5.60;99.90
53272;DHT22;39160;48.580;7.756;2022-12-07T20:20:14;5.70;99.90
53272;DHT22;39160;48.580;7.756;2022-12-07T20:25:05;5.60;99.90
53272;DHT22;39160;48.580;7.756;2022-12-07T20:29:56;5.50;99.90
53272;DHT22;39160;48.580;7.756;2022-12-07T20:34:46;5.50;99.90
53272;DHT22;39160;48.580;7.756;2022-12-07T20:39:38;5.40;99.90
53272;DHT22;39160;48.580;7.756;2022-12-07T20:44:28;5.30;99.90
53272;DHT22;39160;48.580;7.756;2022-12-07T20:49:19;5.20;99.90
53272;DHT22;39160;48.580;7.756;2022-12-07T20:54:10;5.20;99.90
53272;DHT22;39160;48.580;7.756;2022-12-07T20:59:03;5.10;99.90
53272;DHT22;39160;48.580;7.756;2022-12-07T21:03:58;5.10;99.90
53272;DHT22;39160;48.580;7.756;2022-12-07T21:08:51;5.00;99.90
53272;DHT22;39160;48.580;7.756;2022-12-07T21:13:42;5.00;99.90
53272;DHT22;39160;48.580;7.756;2022-12-07T21:18:33;5.00;99.90
53272;DHT22;39160;48.580;7.756;2022-12-07T21:23:24;5.00;99.90
53272;DHT22;39160;48.580;7.756;2022-12-07T21:28:14;4.90;99.90
53272;DHT22;39160;48.580;7.756;2022-12-07T21:33:05;4.90;99.90
53272;DHT22;39160;48.580;7.756;2022-12-07T21:37:56;5.70;99.90
53272;DHT22;39160;48.580;7.756;2022-12-07T21:42:46;6.00;99.90
53272;DHT22;39160;48.580;7.756;2022-12-07T21:47:38;5.70;99.90
53272;DHT22;39160;48.580;7.756;2022-12-07T21:52:29;5.20;99.90
53272;DHT22;39160;48.580;7.756;2022-12-07T21:57:19;5.00;99.90
53272;DHT22;39160;48.580;7.756;2022-12-07T22:02:12;5.00;99.90
53272;DHT22;39160;48.580;7.756;2022-12-07T22:07:03;4.90;99.90
53272;DHT22;39160;48.580;7.756;2022-12-07T22:11:54;4.90;99.90
53272;DHT22;39160;48.580;7.756;2022-12-07T22:16:44;4.80;99.90
53272;DHT22;39160;48.580;7.756;2022-12-07T22:21:35;4.70;99.90
53272;DHT22;39160;48.580;7.756;2022-12-07T22:26:26;4.80;99.90
53272;DHT22;39160;48.580;7.756;2022-12-07T22:31:18;4.70;99.90
53272;DHT22;39160;48.580;7.756;2022-12-07T22:36:09;4.70;99.90
53272;DHT22;39160;48.580;7.756;2022-12-07T22:41:11;4.60;99.90
53272;DHT22;39160;48.580;7.756;2022-12-07T22:46:02;4.50;99.90
53272;DHT22;39160;48.580;7.756;2022-12-07T22:50:53;4.50;99.90
53272;DHT22;39160;48.580;7.756;2022-12-07T22:55:44;4.90;99.90
53272;DHT22;39160;48.580;7.756;2022-12-07T23:00:35;5.40;99.90
53272;DHT22;39160;48.580;7.756;2022-12-07T23:05:26;5.70;99.90
53272;DHT22;39160;48.580;7.756;2022-12-07T23:10:17;5.60;99.90
53272;DHT22;39160;48.580;7.756;2022-12-07T23:15:08;5.30;99.90
53272;DHT22;39160;48.580;7.756;2022-12-07T23:19:59;5.20;99.90
53272;DHT22;39160;48.580;7.756;2022-12-07T23:24:49;5.10;99.90
53272;DHT22;39160;48.580;7.756;2022-12-07T23:29:40;5.20;99.90
53272;DHT22;39160;48.580;7.756;2022-12-07T23:34:31;5.00;99.90
53272;DHT22;39160;48.580;7.756;2022-12-07T23:39:21;5.00;99.90
53272;DHT22;39160;48.580;7.756;2022-12-07T23:44:12;4.90;99.90
53272;DHT22;39160;48.580;7.756;2022-12-07T23:49:03;5.10;99.90
53272;DHT22;39160;48.580;7.756;2022-12-07T23:53:54;5.20;99.90
53272;DHT22;39160;48.580;7.756;2022-12-07T23:58:48;5.10;99.90
